KFHB

Fernandina Beach Municipal Airport

Fernandina Beach, Florida, USA
METAR KFHB 232312Z AUTO 26009KT 10SM CLR 20/11 A3000 RMK AO1
Observed Flight Rules
Jan-23 @ 23:12 UTC (35 minutes ago) Visual Flight Rules
Wind Visibility Clouds
260° at 9 knots 10 miles
  • Clear skies
Temperatures Readings
Current 20°C / 68°F
Dewpoint 11°C / 52°F
Humidity 56%
Altimeter 30" Hg
Pressure 1016 hPa
Elevation 5
METAR KFHB 232312Z AUTO 26009KT 10SM CLR 20/11 A3000 RMK AO1
Observed Flight Rules
Jan-23 @ 23:12 UTC
(35 minutes ago)
VFR
Wind Visibility
260° at 9 knots 10 miles
Clouds
  • Clear skies
Temperature Dewpoint
20°C / 68°F 11°C / 52°F
Humidity Altimeter Pressure
56% 30" Hg 1016 hPa